sensor_id;sensor_type;location;lat;lon;timestamp;temperature;humidity
8214;DHT22;4148;47.974;7.824;2023-07-28T00:00:06;18.50;99.90
8214;DHT22;4148;47.974;7.824;2023-07-28T00:02:36;18.50;99.90
8214;DHT22;4148;47.974;7.824;2023-07-28T00:05:04;18.50;99.90
8214;DHT22;4148;47.974;7.824;2023-07-28T00:07:32;18.50;99.90
8214;DHT22;4148;47.974;7.824;2023-07-28T00:10:03;18.50;99.90
8214;DHT22;4148;47.974;7.824;2023-07-28T00:12:31;18.50;99.90
8214;DHT22;4148;47.974;7.824;2023-07-28T00:14:59;18.50;99.90
8214;DHT22;4148;47.974;7.824;2023-07-28T00:17:27;18.50;99.90
8214;DHT22;4148;47.974;7.824;2023-07-28T00:19:56;18.50;99.90
8214;DHT22;4148;47.974;7.824;2023-07-28T00:22:24;18.50;99.90
8214;DHT22;4148;47.974;7.824;2023-07-28T00:24:52;18.50;99.90
8214;DHT22;4148;47.974;7.824;2023-07-28T00:27:20;18.50;99.90
8214;DHT22;4148;47.974;7.824;2023-07-28T00:29:48;18.50;99.90
8214;DHT22;4148;47.974;7.824;2023-07-28T00:32:17;18.50;99.90
8214;DHT22;4148;47.974;7.824;2023-07-28T00:34:45;18.50;99.90
8214;DHT22;4148;47.974;7.824;2023-07-28T00:37:14;18.50;99.90
8214;DHT22;4148;47.974;7.824;2023-07-28T00:39:42;18.40;99.90
8214;DHT22;4148;47.974;7.824;2023-07-28T00:42:10;18.50;99.90
8214;DHT22;4148;47.974;7.824;2023-07-28T00:44:37;18.40;99.90
8214;DHT22;4148;47.974;7.824;2023-07-28T00:47:05;18.40;99.90
8214;DHT22;4148;47.974;7.824;2023-07-28T00:49:34;18.50;99.90
8214;DHT22;4148;47.974;7.824;2023-07-28T00:52:02;18.40;99.90
8214;DHT22;4148;47.974;7.824;2023-07-28T00:54:31;18.40;99.90
8214;DHT22;4148;47.974;7.824;2023-07-28T00:56:59;18.40;99.90
8214;DHT22;4148;47.974;7.824;2023-07-28T00:59:28;18.30;99.90
8214;DHT22;4148;47.974;7.824;2023-07-28T01:01:56;18.20;99.90
8214;DHT22;4148;47.974;7.824;2023-07-28T01:04:24;18.10;99.90
8214;DHT22;4148;47.974;7.824;2023-07-28T01:06:59;18.00;99.90
8214;DHT22;4148;47.974;7.824;2023-07-28T01:09:36;18.00;99.90
8214;DHT22;4148;47.974;7.824;2023-07-28T01:12:07;18.00;99.90
8214;DHT22;4148;47.974;7.824;2023-07-28T01:14:35;18.10;99.90
8214;DHT22;4148;47.974;7.824;2023-07-28T01:17:04;18.20;99.90
8214;DHT22;4148;47.974;7.824;2023-07-28T01:19:31;18.10;99.90
8214;DHT22;4148;47.974;7.824;2023-07-28T01:22:11;18.00;99.90
8214;DHT22;4148;47.974;7.824;2023-07-28T01:24:51;18.00;99.90
8214;DHT22;4148;47.974;7.824;2023-07-28T01:27:20;18.00;99.90
8214;DHT22;4148;47.974;7.824;2023-07-28T01:29:48;18.00;99.90
8214;DHT22;4148;47.974;7.824;2023-07-28T01:32:16;18.10;99.90
8214;DHT22;4148;47.974;7.824;2023-07-28T01:34:44;18.00;99.90
8214;DHT22;4148;47.974;7.824;2023-07-28T01:37:12;18.00;99.90
8214;DHT22;4148;47.974;7.824;2023-07-28T01:39:40;18.00;99.90
8214;DHT22;4148;47.974;7.824;2023-07-28T01:42:08;18.00;99.90
8214;DHT22;4148;47.974;7.824;2023-07-28T01:44:37;18.00;99.90
8214;DHT22;4148;47.974;7.824;2023-07-28T01:47:05;18.00;99.90
8214;DHT22;4148;47.974;7.824;2023-07-28T01:49:33;18.00;99.90
8214;DHT22;4148;47.974;7.824;2023-07-28T01:52:01;18.00;99.90
8214;DHT22;4148;47.974;7.824;2023-07-28T01:54:29;18.00;99.90
8214;DHT22;4148;47.974;7.824;2023-07-28T01:56:56;18.10;99.90
8214;DHT22;4148;47.974;7.824;2023-07-28T01:59:24;18.10;99.90
8214;DHT22;4148;47.974;7.824;2023-07-28T02:01:53;18.10;99.90
8214;DHT22;4148;47.974;7.824;2023-07-28T02:04:21;18.10;99.90
8214;DHT22;4148;47.974;7.824;2023-07-28T02:06:49;18.10;99.90
8214;DHT22;4148;47.974;7.824;2023-07-28T02:09:17;18.10;99.90
8214;DHT22;4148;47.974;7.824;2023-07-28T02:11:45;18.20;99.90
8214;DHT22;4148;47.974;7.824;2023-07-28T02:14:13;18.10;99.90
8214;DHT22;4148;47.974;7.824;2023-07-28T02:16:40;18.20;99.90
8214;DHT22;4148;47.974;7.824;2023-07-28T02:19:10;18.20;99.90
8214;DHT22;4148;47.974;7.824;2023-07-28T02:21:37;18.20;99.90
8214;DHT22;4148;47.974;7.824;2023-07-28T02:24:05;18.20;99.90
8214;DHT22;4148;47.974;7.824;2023-07-28T02:26:33;18.20;99.90
8214;DHT22;4148;47.974;7.824;2023-07-28T02:29:01;18.20;99.90
8214;DHT22;4148;47.974;7.824;2023-07-28T02:31:29;18.20;99.90
8214;DHT22;4148;47.974;7.824;2023-07-28T02:33:57;18.10;99.90
8214;DHT22;4148;47.974;7.824;2023-07-28T02:36:26;18.10;99.90
8214;DHT22;4148;47.974;7.824;2023-07-28T02:38:54;18.10;99.90
8214;DHT22;4148;47.974;7.824;2023-07-28T02:41:22;18.10;99.90
8214;DHT22;4148;47.974;7.824;2023-07-28T02:43:50;18.20;99.90
8214;DHT22;4148;47.974;7.824;2023-07-28T02:46:18;18.20;99.90
8214;DHT22;4148;47.974;7.824;2023-07-28T02:48:47;18.20;99.90
8214;DHT22;4148;47.974;7.824;2023-07-28T02:51:14;18.30;99.90
8214;DHT22;4148;47.974;7.824;2023-07-28T02:53:44;18.30;99.90
8214;DHT22;4148;47.974;7.824;2023-07-28T02:56:11;18.40;99.90
8214;DHT22;4148;47.974;7.824;2023-07-28T02:58:39;18.60;99.90
8214;DHT22;4148;47.974;7.824;2023-07-28T03:01:07;18.60;99.90
8214;DHT22;4148;47.974;7.824;2023-07-28T03:03:35;18.60;99.90
8214;DHT22;4148;47.974;7.824;2023-07-28T03:06:03;18.60;99.90
8214;DHT22;4148;47.974;7.824;2023-07-28T03:08:31;18.60;99.90
8214;DHT22;4148;47.974;7.824;2023-07-28T03:11:00;18.60;99.90
8214;DHT22;4148;47.974;7.824;2023-07-28T03:13:29;18.70;99.90
8214;DHT22;4148;47.974;7.824;2023-07-28T03:15:56;18.70;99.90
8214;DHT22;4148;47.974;7.824;2023-07-28T03:18:24;18.70;99.90
8214;DHT22;4148;47.974;7.824;2023-07-28T03:20:52;18.80;99.90
8214;DHT22;4148;47.974;7.824;2023-07-28T03:23:21;18.90;99.90
8214;DHT22;4148;47.974;7.824;2023-07-28T03:25:49;18.90;99.90
8214;DHT22;4148;47.974;7.824;2023-07-28T03:28:18;18.80;99.90
8214;DHT22;4148;47.974;7.824;2023-07-28T03:30:46;18.90;99.90
8214;DHT22;4148;47.974;7.824;2023-07-28T03:33:14;19.00;99.90
8214;DHT22;4148;47.974;7.824;2023-07-28T03:35:42;19.10;99.90
8214;DHT22;4148;47.974;7.824;2023-07-28T03:38:10;19.30;99.90
8214;DHT22;4148;47.974;7.824;2023-07-28T03:40:38;19.40;99.90
8214;DHT22;4148;47.974;7.824;2023-07-28T03:43:05;19.50;99.90
8214;DHT22;4148;47.974;7.824;2023-07-28T03:45:35;19.70;99.90
8214;DHT22;4148;47.974;7.824;2023-07-28T03:48:03;19.80;99.90
8214;DHT22;4148;47.974;7.824;2023-07-28T03:50:31;19.90;99.90
8214;DHT22;4148;47.974;7.824;2023-07-28T03:52:59;19.90;99.90
8214;DHT22;4148;47.974;7.824;2023-07-28T03:55:27;20.00;99.90
8214;DHT22;4148;47.974;7.824;2023-07-28T03:57:55;20.10;99.90
8214;DHT22;4148;47.974;7.824;2023-07-28T04:00:23;20.10;99.90
8214;DHT22;4148;47.974;7.824;2023-07-28T04:02:52;20.10;99.90
8214;DHT22;4148;47.974;7.824;2023-07-28T04:05:20;20.20;99.90
8214;DHT22;4148;47.974;7.824;2023-07-28T04:07:48;20.30;99.90
8214;DHT22;4148;47.974;7.824;2023-07-28T04:10:15;20.30;99.90
8214;DHT22;4148;47.974;7.824;2023-07-28T04:12:43;20.20;99.90
8214;DHT22;4148;47.974;7.824;2023-07-28T04:15:11;20.30;99.90
8214;DHT22;4148;47.974;7.824;2023-07-28T04:17:39;20.20;99.90
8214;DHT22;4148;47.974;7.824;2023-07-28T04:20:09;20.10;99.90
8214;DHT22;4148;47.974;7.824;2023-07-28T04:22:37;20.00;99.90
8214;DHT22;4148;47.974;7.824;2023-07-28T04:25:06;20.00;99.90
8214;DHT22;4148;47.974;7.824;2023-07-28T04:27:34;19.90;99.90
8214;DHT22;4148;47.974;7.824;2023-07-28T04:30:02;19.80;99.90
8214;DHT22;4148;47.974;7.824;2023-07-28T04:32:30;19.80;99.90
8214;DHT22;4148;47.974;7.824;2023-07-28T04:34:58;19.80;99.90
8214;DHT22;4148;47.974;7.824;2023-07-28T04:37:27;19.90;99.90
8214;DHT22;4148;47.974;7.824;2023-07-28T04:39:55;20.00;99.90
8214;DHT22;4148;47.974;7.824;2023-07-28T04:42:23;20.00;99.90
8214;DHT22;4148;47.974;7.824;2023-07-28T04:44:50;20.00;99.90
8214;DHT22;4148;47.974;7.824;2023-07-28T04:47:18;20.10;99.90
8214;DHT22;4148;47.974;7.824;2023-07-28T04:49:46;20.10;99.90
8214;DHT22;4148;47.974;7.824;2023-07-28T04:52:14;20.20;99.90
8214;DHT22;4148;47.974;7.824;2023-07-28T04:54:43;20.30;99.90
8214;DHT22;4148;47.974;7.824;2023-07-28T04:57:11;20.30;99.90
8214;DHT22;4148;47.974;7.824;2023-07-28T04:59:42;20.30;99.90
8214;DHT22;4148;47.974;7.824;2023-07-28T05:02:10;20.30;99.90
8214;DHT22;4148;47.974;7.824;2023-07-28T05:04:38;20.40;99.90
8214;DHT22;4148;47.974;7.824;2023-07-28T05:07:06;20.30;99.90
8214;DHT22;4148;47.974;7.824;2023-07-28T05:09:33;20.40;99.90
8214;DHT22;4148;47.974;7.824;2023-07-28T05:12:03;20.50;99.90
8214;DHT22;4148;47.974;7.824;2023-07-28T05:14:31;20.60;99.90
8214;DHT22;4148;47.974;7.824;2023-07-28T05:16:59;20.70;99.90
8214;DHT22;4148;47.974;7.824;2023-07-28T05:19:27;20.70;99.90
8214;DHT22;4148;47.974;7.824;2023-07-28T05:21:55;20.80;99.90
8214;DHT22;4148;47.974;7.824;2023-07-28T05:24:23;20.90;99.90
8214;DHT22;4148;47.974;7.824;2023-07-28T05:26:50;20.90;99.90
8214;DHT22;4148;47.974;7.824;2023-07-28T05:29:20;21.00;99.90
8214;DHT22;4148;47.974;7.824;2023-07-28T05:31:47;21.00;99.90
8214;DHT22;4148;47.974;7.824;2023-07-28T05:34:15;21.00;99.90
8214;DHT22;4148;47.974;7.824;2023-07-28T05:36:43;21.00;99.90
8214;DHT22;4148;47.974;7.824;2023-07-28T05:39:11;21.00;99.90
8214;DHT22;4148;47.974;7.824;2023-07-28T05:41:39;21.00;99.90
8214;DHT22;4148;47.974;7.824;2023-07-28T05:44:07;21.00;99.90
8214;DHT22;4148;47.974;7.824;2023-07-28T05:46:36;21.10;99.90
8214;DHT22;4148;47.974;7.824;2023-07-28T05:49:04;21.10;99.90
8214;DHT22;4148;47.974;7.824;2023-07-28T05:51:32;21.10;99.90
8214;DHT22;4148;47.974;7.824;2023-07-28T05:54:00;21.10;99.90
8214;DHT22;4148;47.974;7.824;2023-07-28T05:56:28;21.10;99.90
8214;DHT22;4148;47.974;7.824;2023-07-28T05:58:56;21.20;99.90
8214;DHT22;4148;47.974;7.824;2023-07-28T06:01:24;21.10;99.90
8214;DHT22;4148;47.974;7.824;2023-07-28T06:03:55;21.20;99.90
8214;DHT22;4148;47.974;7.824;2023-07-28T06:06:26;21.20;99.90
8214;DHT22;4148;47.974;7.824;2023-07-28T06:08:54;21.10;99.90
8214;DHT22;4148;47.974;7.824;2023-07-28T06:11:21;21.10;99.90
8214;DHT22;4148;47.974;7.824;2023-07-28T06:13:49;21.10;99.90
8214;DHT22;4148;47.974;7.824;2023-07-28T06:16:17;21.10;99.90
8214;DHT22;4148;47.974;7.824;2023-07-28T06:18:45;21.10;99.90
8214;DHT22;4148;47.974;7.824;2023-07-28T06:21:14;21.00;99.90
8214;DHT22;4148;47.974;7.824;2023-07-28T06:23:42;21.10;99.90
8214;DHT22;4148;47.974;7.824;2023-07-28T06:26:10;21.10;99.90
8214;DHT22;4148;47.974;7.824;2023-07-28T06:28:38;21.00;99.90
8214;DHT22;4148;47.974;7.824;2023-07-28T06:31:07;21.00;99.90
8214;DHT22;4148;47.974;7.824;2023-07-28T06:33:35;21.00;99.90
8214;DHT22;4148;47.974;7.824;2023-07-28T06:36:03;21.00;99.90
8214;DHT22;4148;47.974;7.824;2023-07-28T06:38:33;21.00;99.90
8214;DHT22;4148;47.974;7.824;2023-07-28T06:41:01;21.00;99.90
8214;DHT22;4148;47.974;7.824;2023-07-28T06:43:28;21.10;99.90
8214;DHT22;4148;47.974;7.824;2023-07-28T06:45:56;21.10;99.90
8214;DHT22;4148;47.974;7.824;2023-07-28T06:48:24;21.10;99.90
8214;DHT22;4148;47.974;7.824;2023-07-28T06:50:52;21.10;99.90
8214;DHT22;4148;47.974;7.824;2023-07-28T06:53:20;21.10;99.90
8214;DHT22;4148;47.974;7.824;2023-07-28T06:55:49;21.10;99.90
8214;DHT22;4148;47.974;7.824;2023-07-28T06:58:17;21.10;99.90
8214;DHT22;4148;47.974;7.824;2023-07-28T07:00:45;21.10;99.90
8214;DHT22;4148;47.974;7.824;2023-07-28T07:03:13;21.10;99.90
8214;DHT22;4148;47.974;7.824;2023-07-28T07:05:41;21.10;99.90
8214;DHT22;4148;47.974;7.824;2023-07-28T07:08:10;21.20;99.90
8214;DHT22;4148;47.974;7.824;2023-07-28T07:10:38;21.20;99.90
8214;DHT22;4148;47.974;7.824;2023-07-28T07:13:07;21.20;99.90
8214;DHT22;4148;47.974;7.824;2023-07-28T07:15:35;21.20;99.90
8214;DHT22;4148;47.974;7.824;2023-07-28T07:18:03;21.30;99.90
8214;DHT22;4148;47.974;7.824;2023-07-28T07:20:34;21.30;99.90
8214;DHT22;4148;47.974;7.824;2023-07-28T07:23:02;21.30;99.90
8214;DHT22;4148;47.974;7.824;2023-07-28T07:25:30;21.40;99.90
8214;DHT22;4148;47.974;7.824;2023-07-28T07:27:57;21.40;99.90
8214;DHT22;4148;47.974;7.824;2023-07-28T07:30:27;21.30;99.90
8214;DHT22;4148;47.974;7.824;2023-07-28T07:32:55;21.30;99.90
8214;DHT22;4148;47.974;7.824;2023-07-28T07:35:22;21.30;99.90
8214;DHT22;4148;47.974;7.824;2023-07-28T07:37:50;21.40;99.90
8214;DHT22;4148;47.974;7.824;2023-07-28T07:40:18;21.40;99.90
8214;DHT22;4148;47.974;7.824;2023-07-28T07:42:48;21.50;99.90
8214;DHT22;4148;47.974;7.824;2023-07-28T07:45:16;21.50;99.90
8214;DHT22;4148;47.974;7.824;2023-07-28T07:47:45;21.50;99.90
8214;DHT22;4148;47.974;7.824;2023-07-28T07:50:13;21.60;99.90
8214;DHT22;4148;47.974;7.824;2023-07-28T07:52:41;21.60;99.90
8214;DHT22;4148;47.974;7.824;2023-07-28T07:55:10;21.60;99.90
8214;DHT22;4148;47.974;7.824;2023-07-28T07:57:39;21.60;99.90
8214;DHT22;4148;47.974;7.824;2023-07-28T08:00:08;21.50;99.90
8214;DHT22;4148;47.974;7.824;2023-07-28T08:02:37;21.50;99.90
8214;DHT22;4148;47.974;7.824;2023-07-28T08:05:07;21.50;99.90
8214;DHT22;4148;47.974;7.824;2023-07-28T08:07:36;21.60;99.90
8214;DHT22;4148;47.974;7.824;2023-07-28T08:10:05;21.60;99.90
8214;DHT22;4148;47.974;7.824;2023-07-28T08:12:33;21.60;99.90
8214;DHT22;4148;47.974;7.824;2023-07-28T08:15:01;21.60;99.90
8214;DHT22;4148;47.974;7.824;2023-07-28T08:17:28;21.70;99.90
8214;DHT22;4148;47.974;7.824;2023-07-28T08:19:57;21.70;99.90
8214;DHT22;4148;47.974;7.824;2023-07-28T08:22:28;21.80;99.90
8214;DHT22;4148;47.974;7.824;2023-07-28T08:24:56;21.80;99.90
8214;DHT22;4148;47.974;7.824;2023-07-28T08:27:24;21.80;99.90
8214;DHT22;4148;47.974;7.824;2023-07-28T08:29:52;21.90;99.90
8214;DHT22;4148;47.974;7.824;2023-07-28T08:32:20;21.80;99.90
8214;DHT22;4148;47.974;7.824;2023-07-28T08:34:48;21.90;99.90
8214;DHT22;4148;47.974;7.824;2023-07-28T08:37:16;21.90;99.90
8214;DHT22;4148;47.974;7.824;2023-07-28T08:39:46;21.90;99.90
8214;DHT22;4148;47.974;7.824;2023-07-28T08:42:13;21.90;99.90
8214;DHT22;4148;47.974;7.824;2023-07-28T08:44:42;21.90;99.90
8214;DHT22;4148;47.974;7.824;2023-07-28T08:47:11;22.00;99.90
8214;DHT22;4148;47.974;7.824;2023-07-28T08:49:39;22.10;99.90
8214;DHT22;4148;47.974;7.824;2023-07-28T08:52:08;22.20;99.90
8214;DHT22;4148;47.974;7.824;2023-07-28T08:54:36;22.20;99.90
8214;DHT22;4148;47.974;7.824;2023-07-28T08:57:06;22.20;99.90
8214;DHT22;4148;47.974;7.824;2023-07-28T08:59:34;22.30;99.90
8214;DHT22;4148;47.974;7.824;2023-07-28T09:02:03;22.40;99.90
8214;DHT22;4148;47.974;7.824;2023-07-28T09:04:32;22.40;99.90
8214;DHT22;4148;47.974;7.824;2023-07-28T09:07:04;22.40;99.90
8214;DHT22;4148;47.974;7.824;2023-07-28T09:09:33;22.40;99.90
8214;DHT22;4148;47.974;7.824;2023-07-28T09:12:01;22.40;99.90
8214;DHT22;4148;47.974;7.824;2023-07-28T09:14:34;22.40;99.90
8214;DHT22;4148;47.974;7.824;2023-07-28T09:17:09;22.40;99.90
8214;DHT22;4148;47.974;7.824;2023-07-28T09:19:50;22.40;99.90
8214;DHT22;4148;47.974;7.824;2023-07-28T09:22:19;22.40;99.90
8214;DHT22;4148;47.974;7.824;2023-07-28T09:24:48;22.40;99.90
8214;DHT22;4148;47.974;7.824;2023-07-28T09:27:20;22.40;99.90
8214;DHT22;4148;47.974;7.824;2023-07-28T09:29:49;22.50;99.90
8214;DHT22;4148;47.974;7.824;2023-07-28T09:32:27;22.50;99.90
8214;DHT22;4148;47.974;7.824;2023-07-28T09:35:08;22.60;99.90
8214;DHT22;4148;47.974;7.824;2023-07-28T09:37:38;22.70;99.90
8214;DHT22;4148;47.974;7.824;2023-07-28T09:40:08;22.70;99.90
8214;DHT22;4148;47.974;7.824;2023-07-28T09:42:38;22.90;99.90
8214;DHT22;4148;47.974;7.824;2023-07-28T09:45:09;23.00;99.90
8214;DHT22;4148;47.974;7.824;2023-07-28T09:47:56;23.10;99.90
8214;DHT22;4148;47.974;7.824;2023-07-28T09:50:27;23.30;99.90
8214;DHT22;4148;47.974;7.824;2023-07-28T09:53:00;23.30;99.90
8214;DHT22;4148;47.974;7.824;2023-07-28T09:55:29;23.40;99.90
8214;DHT22;4148;47.974;7.824;2023-07-28T09:58:01;23.40;99.90
8214;DHT22;4148;47.974;7.824;2023-07-28T10:00:34;23.50;99.90
8214;DHT22;4148;47.974;7.824;2023-07-28T10:03:02;23.50;99.90
8214;DHT22;4148;47.974;7.824;2023-07-28T10:05:31;23.50;99.90
8214;DHT22;4148;47.974;7.824;2023-07-28T10:08:01;23.50;99.90
8214;DHT22;4148;47.974;7.824;2023-07-28T10:10:30;23.50;99.90
8214;DHT22;4148;47.974;7.824;2023-07-28T10:12:59;23.50;99.90
8214;DHT22;4148;47.974;7.824;2023-07-28T10:15:28;23.40;99.90
8214;DHT22;4148;47.974;7.824;2023-07-28T10:17:59;23.40;99.90
8214;DHT22;4148;47.974;7.824;2023-07-28T10:20:46;23.40;99.90
8214;DHT22;4148;47.974;7.824;2023-07-28T10:23:17;23.40;99.90
8214;DHT22;4148;47.974;7.824;2023-07-28T10:25:45;23.50;99.90
8214;DHT22;4148;47.974;7.824;2023-07-28T10:28:27;23.50;99.90
8214;DHT22;4148;47.974;7.824;2023-07-28T10:30:55;23.60;99.90
8214;DHT22;4148;47.974;7.824;2023-07-28T10:33:30;23.60;99.90
8214;DHT22;4148;47.974;7.824;2023-07-28T10:35:59;23.60;99.90
8214;DHT22;4148;47.974;7.824;2023-07-28T10:38:34;23.70;99.90
8214;DHT22;4148;47.974;7.824;2023-07-28T10:41:11;23.60;99.90
8214;DHT22;4148;47.974;7.824;2023-07-28T10:43:40;23.70;99.90
8214;DHT22;4148;47.974;7.824;2023-07-28T10:46:09;23.70;99.90
8214;DHT22;4148;47.974;7.824;2023-07-28T10:48:43;23.70;99.90
8214;DHT22;4148;47.974;7.824;2023-07-28T10:51:11;23.80;99.90
8214;DHT22;4148;47.974;7.824;2023-07-28T10:53:39;23.80;99.90
8214;DHT22;4148;47.974;7.824;2023-07-28T10:56:08;23.80;99.90
8214;DHT22;4148;47.974;7.824;2023-07-28T10:58:37;23.80;99.90
8214;DHT22;4148;47.974;7.824;2023-07-28T11:01:05;23.80;99.90
8214;DHT22;4148;47.974;7.824;2023-07-28T11:03:34;23.80;99.90
8214;DHT22;4148;47.974;7.824;2023-07-28T11:06:03;23.80;99.90
8214;DHT22;4148;47.974;7.824;2023-07-28T11:08:33;23.70;99.90
8214;DHT22;4148;47.974;7.824;2023-07-28T11:11:04;23.70;99.90
8214;DHT22;4148;47.974;7.824;2023-07-28T11:13:32;23.70;99.90
8214;DHT22;4148;47.974;7.824;2023-07-28T11:16:07;23.70;99.90
8214;DHT22;4148;47.974;7.824;2023-07-28T11:18:37;23.80;99.90
8214;DHT22;4148;47.974;7.824;2023-07-28T11:21:06;24.00;99.90
8214;DHT22;4148;47.974;7.824;2023-07-28T11:23:34;24.10;99.90
8214;DHT22;4148;47.974;7.824;2023-07-28T11:26:02;24.20;99.90
8214;DHT22;4148;47.974;7.824;2023-07-28T11:28:30;24.30;99.90
8214;DHT22;4148;47.974;7.824;2023-07-28T11:30:59;24.30;99.90
8214;DHT22;4148;47.974;7.824;2023-07-28T11:33:27;24.40;99.90
8214;DHT22;4148;47.974;7.824;2023-07-28T11:35:55;24.30;99.90
8214;DHT22;4148;47.974;7.824;2023-07-28T11:38:26;24.30;99.90
8214;DHT22;4148;47.974;7.824;2023-07-28T11:40:56;24.30;99.90
8214;DHT22;4148;47.974;7.824;2023-07-28T11:43:25;24.40;99.90
8214;DHT22;4148;47.974;7.824;2023-07-28T11:45:53;24.40;99.90
8214;DHT22;4148;47.974;7.824;2023-07-28T11:48:21;24.40;99.90
8214;DHT22;4148;47.974;7.824;2023-07-28T11:50:49;24.40;99.90
8214;DHT22;4148;47.974;7.824;2023-07-28T11:53:20;24.50;99.90
8214;DHT22;4148;47.974;7.824;2023-07-28T11:55:49;24.40;99.90
8214;DHT22;4148;47.974;7.824;2023-07-28T11:58:18;24.40;99.90
8214;DHT22;4148;47.974;7.824;2023-07-28T12:00:50;24.30;99.90
8214;DHT22;4148;47.974;7.824;2023-07-28T12:03:17;24.30;99.90
8214;DHT22;4148;47.974;7.824;2023-07-28T12:06:03;24.20;99.90
8214;DHT22;4148;47.974;7.824;2023-07-28T12:08:35;24.20;99.90
8214;DHT22;4148;47.974;7.824;2023-07-28T12:11:04;24.30;99.90
8214;DHT22;4148;47.974;7.824;2023-07-28T12:13:47;24.30;99.90
8214;DHT22;4148;47.974;7.824;2023-07-28T12:16:31;24.40;99.90
8214;DHT22;4148;47.974;7.824;2023-07-28T12:19:02;24.50;99.90
8214;DHT22;4148;47.974;7.824;2023-07-28T12:21:31;24.40;99.90
8214;DHT22;4148;47.974;7.824;2023-07-28T12:23:59;24.20;99.90
8214;DHT22;4148;47.974;7.824;2023-07-28T12:26:31;24.20;99.90
8214;DHT22;4148;47.974;7.824;2023-07-28T12:29:02;24.10;99.90
8214;DHT22;4148;47.974;7.824;2023-07-28T12:31:36;24.00;99.90
8214;DHT22;4148;47.974;7.824;2023-07-28T12:34:07;23.90;99.90
8214;DHT22;4148;47.974;7.824;2023-07-28T12:36:35;23.80;99.90
8214;DHT22;4148;47.974;7.824;2023-07-28T12:39:06;23.80;99.90
8214;DHT22;4148;47.974;7.824;2023-07-28T12:41:38;23.80;99.90
8214;DHT22;4148;47.974;7.824;2023-07-28T12:44:09;23.70;99.90
8214;DHT22;4148;47.974;7.824;2023-07-28T12:46:41;23.50;99.90
8214;DHT22;4148;47.974;7.824;2023-07-28T12:49:10;23.50;99.90
8214;DHT22;4148;47.974;7.824;2023-07-28T12:51:47;23.40;99.90
8214;DHT22;4148;47.974;7.824;2023-07-28T12:54:18;23.30;99.90
8214;DHT22;4148;47.974;7.824;2023-07-28T12:56:47;23.20;99.90
8214;DHT22;4148;47.974;7.824;2023-07-28T12:59:36;23.10;99.90
8214;DHT22;4148;47.974;7.824;2023-07-28T13:02:24;23.00;99.90
8214;DHT22;4148;47.974;7.824;2023-07-28T13:04:53;22.70;99.90
8214;DHT22;4148;47.974;7.824;2023-07-28T13:07:20;22.70;99.90
8214;DHT22;4148;47.974;7.824;2023-07-28T13:09:51;22.70;99.90
8214;DHT22;4148;47.974;7.824;2023-07-28T13:12:20;22.60;99.90
8214;DHT22;4148;47.974;7.824;2023-07-28T13:14:51;22.70;99.90
8214;DHT22;4148;47.974;7.824;2023-07-28T13:17:19;22.70;99.90
8214;DHT22;4148;47.974;7.824;2023-07-28T13:19:47;22.70;99.90
8214;DHT22;4148;47.974;7.824;2023-07-28T13:22:15;22.70;99.90
8214;DHT22;4148;47.974;7.824;2023-07-28T13:24:43;22.60;99.90
8214;DHT22;4148;47.974;7.824;2023-07-28T13:27:11;22.60;99.90
8214;DHT22;4148;47.974;7.824;2023-07-28T13:29:40;22.50;99.90
8214;DHT22;4148;47.974;7.824;2023-07-28T13:32:16;22.40;99.90
8214;DHT22;4148;47.974;7.824;2023-07-28T13:34:44;22.30;99.90
8214;DHT22;4148;47.974;7.824;2023-07-28T13:37:12;22.40;99.90
8214;DHT22;4148;47.974;7.824;2023-07-28T13:39:41;22.40;99.90
8214;DHT22;4148;47.974;7.824;2023-07-28T13:42:09;22.40;99.90
8214;DHT22;4148;47.974;7.824;2023-07-28T13:44:40;22.50;99.90
8214;DHT22;4148;47.974;7.824;2023-07-28T13:47:23;22.60;99.90
8214;DHT22;4148;47.974;7.824;2023-07-28T13:49:51;22.50;99.90
8214;DHT22;4148;47.974;7.824;2023-07-28T13:52:18;22.50;99.90
8214;DHT22;4148;47.974;7.824;2023-07-28T13:54:48;22.60;99.90
8214;DHT22;4148;47.974;7.824;2023-07-28T13:57:19;22.60;99.90
8214;DHT22;4148;47.974;7.824;2023-07-28T13:59:48;22.80;99.90
8214;DHT22;4148;47.974;7.824;2023-07-28T14:02:16;22.80;99.90
8214;DHT22;4148;47.974;7.824;2023-07-28T14:04:44;23.00;99.90
8214;DHT22;4148;47.974;7.824;2023-07-28T14:07:12;23.00;99.90
8214;DHT22;4148;47.974;7.824;2023-07-28T14:09:40;23.10;99.90
8214;DHT22;4148;47.974;7.824;2023-07-28T14:12:08;23.10;99.90
8214;DHT22;4148;47.974;7.824;2023-07-28T14:14:36;23.10;99.90
8214;DHT22;4148;47.974;7.824;2023-07-28T14:17:05;23.10;99.90
8214;DHT22;4148;47.974;7.824;2023-07-28T14:19:33;23.10;99.90
8214;DHT22;4148;47.974;7.824;2023-07-28T14:22:01;23.10;99.90
8214;DHT22;4148;47.974;7.824;2023-07-28T14:24:29;23.10;99.90
8214;DHT22;4148;47.974;7.824;2023-07-28T14:26:57;23.20;99.90
8214;DHT22;4148;47.974;7.824;2023-07-28T14:29:25;23.10;99.90
8214;DHT22;4148;47.974;7.824;2023-07-28T14:31:53;23.10;99.90
8214;DHT22;4148;47.974;7.824;2023-07-28T14:34:22;23.10;99.90
8214;DHT22;4148;47.974;7.824;2023-07-28T14:36:50;23.20;99.90
8214;DHT22;4148;47.974;7.824;2023-07-28T14:39:18;23.10;99.90
8214;DHT22;4148;47.974;7.824;2023-07-28T14:41:46;23.10;99.90
8214;DHT22;4148;47.974;7.824;2023-07-28T14:44:13;23.00;99.90
8214;DHT22;4148;47.974;7.824;2023-07-28T14:46:43;23.00;99.90
8214;DHT22;4148;47.974;7.824;2023-07-28T14:49:13;23.10;99.90
8214;DHT22;4148;47.974;7.824;2023-07-28T14:51:42;23.10;99.90
8214;DHT22;4148;47.974;7.824;2023-07-28T14:54:10;23.20;99.90
8214;DHT22;4148;47.974;7.824;2023-07-28T14:56:38;23.10;99.90
8214;DHT22;4148;47.974;7.824;2023-07-28T14:59:05;23.10;99.90
8214;DHT22;4148;47.974;7.824;2023-07-28T15:01:33;23.10;99.90
8214;DHT22;4148;47.974;7.824;2023-07-28T15:04:01;23.00;99.90
8214;DHT22;4148;47.974;7.824;2023-07-28T15:06:32;22.90;99.90
8214;DHT22;4148;47.974;7.824;2023-07-28T15:09:01;22.80;99.90
8214;DHT22;4148;47.974;7.824;2023-07-28T15:11:29;22.60;99.90
8214;DHT22;4148;47.974;7.824;2023-07-28T15:13:57;22.50;99.90
8214;DHT22;4148;47.974;7.824;2023-07-28T15:16:25;22.30;99.90
8214;DHT22;4148;47.974;7.824;2023-07-28T15:18:53;22.20;99.90
8214;DHT22;4148;47.974;7.824;2023-07-28T15:21:22;22.10;99.90
8214;DHT22;4148;47.974;7.824;2023-07-28T15:23:53;22.00;99.90
8214;DHT22;4148;47.974;7.824;2023-07-28T15:26:23;21.80;99.90
8214;DHT22;4148;47.974;7.824;2023-07-28T15:28:50;21.60;99.90
8214;DHT22;4148;47.974;7.824;2023-07-28T15:31:18;21.50;99.90
8214;DHT22;4148;47.974;7.824;2023-07-28T15:33:46;21.40;99.90
8214;DHT22;4148;47.974;7.824;2023-07-28T15:36:14;21.50;99.90
8214;DHT22;4148;47.974;7.824;2023-07-28T15:38:42;21.40;99.90
8214;DHT22;4148;47.974;7.824;2023-07-28T15:41:11;21.40;99.90
8214;DHT22;4148;47.974;7.824;2023-07-28T15:43:40;21.30;99.90
8214;DHT22;4148;47.974;7.824;2023-07-28T15:46:10;21.30;99.90
8214;DHT22;4148;47.974;7.824;2023-07-28T15:48:38;21.30;99.90
8214;DHT22;4148;47.974;7.824;2023-07-28T15:51:08;21.10;99.90
8214;DHT22;4148;47.974;7.824;2023-07-28T15:53:36;21.00;99.90
8214;DHT22;4148;47.974;7.824;2023-07-28T15:56:04;21.00;99.90
8214;DHT22;4148;47.974;7.824;2023-07-28T15:58:33;20.90;99.90
8214;DHT22;4148;47.974;7.824;2023-07-28T16:01:02;20.90;99.90
8214;DHT22;4148;47.974;7.824;2023-07-28T16:03:31;20.90;99.90
8214;DHT22;4148;47.974;7.824;2023-07-28T16:05:59;20.90;99.90
8214;DHT22;4148;47.974;7.824;2023-07-28T16:08:27;20.90;99.90
8214;DHT22;4148;47.974;7.824;2023-07-28T16:10:55;21.00;99.90
8214;DHT22;4148;47.974;7.824;2023-07-28T16:13:23;21.00;99.90